CheckWX is a tool to help pilots better visualize weather data.  It is not intended as a substitute for an official pre-flight weather briefing.

21:37:35 UTC

KHQZ METAR
Mesquite Metro Airport
Mesquite, Texas, USA
Current

48 mins ago

KHQZ 232050Z 13012G26KT 10SM SCT045 31/22 A2997
Observed
May-23 @ 20:50 UTC
Wind
  • 130° at 12 KTS
  • Gusting to 26 KTS
Visibility
10 SM
Flight Rules
VFR
Cloud Levels
  • Scattered at 4,500' AGL
Temperature
31°C / 88°F
Dewpoint
22°C / 72°F
Heat Index
35°C / 95°F
Humidity
59%
Altimeter
29.97" Hg
Pressure
1014.92 hPa
Previous

2 hours ago

KHQZ 231950Z 15014G22KT 10SM SCT041 BKN060 31/22 A2999
Observed
May-23 @ 19:50 UTC
Wind
  • 150° at 14 KTS
  • Gusting to 22 KTS
Visibility
10 SM
Flight Rules
VFR
Cloud Levels
  • Scattered at 4,100' AGL
  • Broken at 6,000' AGL
Temperature
31°C / 88°F
Dewpoint
22°C / 72°F
Heat Index
35°C / 95°F
Humidity
59%
Altimeter
29.99" Hg
Pressure
1015.62 hPa
Previous

3 hours ago

KHQZ 231850Z 16016G21KT 10SM SCT041 BKN050 30/22 A3001
Observed
May-23 @ 18:50 UTC
Wind
  • 160° at 16 KTS
  • Gusting to 21 KTS
Visibility
10 SM
Flight Rules
VFR
Cloud Levels
  • Scattered at 4,100' AGL
  • Broken at 5,000' AGL
Temperature
30°C / 86°F
Dewpoint
22°C / 72°F
Heat Index
33°C / 92°F
Humidity
62%
Altimeter
30.01" Hg
Pressure
1016.22 hPa